Time;durP1;ratioP1;P1;durP2;ratioP2;P2;SDS_P1;SDS_P2;PMS_P1;PMS_P2;Temp;Humidity;BMP_temperature;BMP_pressure;BME280_temperature;BME280_humidity;BME280_pressure;Samples;Min_cycle;Max_cycle;Signal;HPM_P1;HPM_P2
2022/10/26 00:00:01;;;;;;;;;;;;;;;11.45;100.00;95446.72;5042404;28;19935;-72
2022/10/26 00:02:37;;;;;;;;;;;;;;;11.46;100.00;95448.34;5038927;28;20109;-72
2022/10/26 00:05:05;;;;;;;;;;;;;;;11.59;100.00;95437.72;5042834;28;19928;-72
2022/10/26 00:07:31;;;;;;;;;;;;;;;11.49;100.00;95447.91;5044013;28;20390;-72
2022/10/26 00:09:58;;;;;;;;;;;;;;;11.51;100.00;95448.47;5033891;28;21309;-71
2022/10/26 00:12:25;;;;;;;;;;;;;;;11.50;100.00;95444.25;5040730;28;20007;-72
2022/10/26 00:14:51;;;;;;;;;;;;;;;11.45;100.00;95449.34;5043687;28;19929;-71
2022/10/26 00:17:18;;;;;;;;;;;;;;;11.49;100.00;95453.13;5040648;28;20092;-71
2022/10/26 00:19:44;;;;;;;;;;;;;;;11.65;100.00;95442.06;5040703;28;19978;-72
2022/10/26 00:22:11;;;;;;;;;;;;;;;11.71;100.00;95444.78;5043222;28;19979;-72
2022/10/26 00:24:38;;;;;;;;;;;;;;;11.65;100.00;95442.06;5036383;28;19936;-72
2022/10/26 00:27:04;;;;;;;;;;;;;;;11.58;100.00;95451.00;5039802;28;19972;-71
2022/10/26 00:29:31;;;;;;;;;;;;;;;11.56;100.00;95453.81;5039956;28;19929;-72
2022/10/26 00:31:58;;;;;;;;;;;;;;;11.46;100.00;95456.94;5041413;28;19936;-72
2022/10/26 00:34:24;;;;;;;;;;;;;;;11.40;100.00;95449.22;5035102;28;19995;-72
2022/10/26 00:36:51;;;;;;;;;;;;;;;11.29;100.00;95448.94;5035200;28;19932;-72
2022/10/26 00:39:18;;;;;;;;;;;;;;;11.25;100.00;95447.81;5039907;28;19986;-72
2022/10/26 00:41:44;;;;;;;;;;;;;;;11.20;100.00;95442.44;5034560;28;20698;-72
2022/10/26 00:44:29;;;;;;;;;;;;;;;11.16;100.00;95443.88;5044511;28;19979;-72
2022/10/26 00:47:03;;;;;;;;;;;;;;;11.22;100.00;95447.44;5037258;28;19932;-72
2022/10/26 00:49:30;;;;;;;;;;;;;;;11.27;100.00;95445.75;5039112;28;20016;-71
2022/10/26 00:51:56;;;;;;;;;;;;;;;11.15;100.00;95452.72;5021457;28;19929;-71
2022/10/26 00:54:23;;;;;;;;;;;;;;;11.05;100.00;95457.66;5037411;28;19964;-72
2022/10/26 00:56:51;;;;;;;;;;;;;;;10.98;100.00;95462.13;5023766;28;19931;-72
2022/10/26 00:59:17;;;;;;;;;;;;;;;10.85;100.00;95457.88;5041276;28;19998;-72
2022/10/26 01:01:45;;;;;;;;;;;;;;;10.63;100.00;95408.78;5038965;28;19928;-72
2022/10/26 01:04:13;;;;;;;;;;;;;;;10.74;100.00;95446.34;5030277;28;19951;-72
2022/10/26 01:06:40;;;;;;;;;;;;;;;10.69;100.00;95449.59;5041958;28;19925;-72
2022/10/26 01:09:08;;;;;;;;;;;;;;;10.61;100.00;95447.28;5042654;28;19994;-72
2022/10/26 01:11:35;;;;;;;;;;;;;;;10.62;100.00;95455.91;5041521;28;19924;-72
2022/10/26 01:14:03;;;;;;;;;;;;;;;10.52;100.00;95449.38;5048859;28;20025;-72
2022/10/26 01:16:45;;;;;;;;;;;;;;;10.35;100.00;95450.91;5047745;28;19929;-72
2022/10/26 01:19:35;;;;;;;;;;;;;;;10.38;100.00;95452.31;5041255;28;19986;-71
2022/10/26 01:22:14;;;;;;;;;;;;;;;10.32;100.00;95443.56;5028917;28;19933;-71
2022/10/26 01:24:53;;;;;;;;;;;;;;;10.36;100.00;95444.72;5048587;28;20015;-71
2022/10/26 01:27:37;;;;;;;;;;;;;;;10.26;100.00;95444.38;5054231;28;19998;-71
2022/10/26 01:30:10;;;;;;;;;;;;;;;10.27;100.00;95440.75;5050521;28;19978;-71
2022/10/26 01:32:37;;;;;;;;;;;;;;;10.17;100.00;95446.44;5046114;28;19936;-72
2022/10/26 01:35:19;;;;;;;;;;;;;;;10.04;100.00;95439.53;5046163;28;20597;-71
2022/10/26 01:37:53;;;;;;;;;;;;;;;9.98;100.00;95437.78;5047540;28;20527;-72
2022/10/26 01:40:24;;;;;;;;;;;;;;;9.94;100.00;95452.25;5024706;28;19929;-71
2022/10/26 01:43:00;;;;;;;;;;;;;;;9.82;100.00;95446.91;5049165;28;19982;-71
2022/10/26 01:45:28;;;;;;;;;;;;;;;9.87;100.00;95443.69;5043242;28;20006;-71
2022/10/26 01:47:55;;;;;;;;;;;;;;;9.78;100.00;95437.94;5047375;28;20029;-71
2022/10/26 01:50:22;;;;;;;;;;;;;;;9.74;100.00;95432.34;5040936;28;19929;-72
2022/10/26 01:52:49;;;;;;;;;;;;;;;9.78;100.00;95427.53;5046137;28;20401;-71
2022/10/26 01:55:38;;;;;;;;;;;;;;;9.74;100.00;95427.16;5045550;28;19921;-71
2022/10/26 01:58:12;;;;;;;;;;;;;;;9.74;100.00;95434.97;5049592;28;19924;-71
2022/10/26 02:00:45;;;;;;;;;;;;;;;9.68;100.00;95433.19;5046462;28;19963;-72
2022/10/26 02:03:20;;;;;;;;;;;;;;;9.66;100.00;95430.00;5053425;28;20016;-71
2022/10/26 02:05:59;;;;;;;;;;;;;;;9.63;100.00;95435.59;5045407;28;19932;-71
2022/10/26 02:08:30;;;;;;;;;;;;;;;9.59;100.00;95442.25;5046740;28;19960;-72
2022/10/26 02:11:02;;;;;;;;;;;;;;;9.57;100.00;95441.66;5042064;28;20252;-71
2022/10/26 02:13:40;;;;;;;;;;;;;;;9.57;100.00;95441.66;5047356;28;19940;-72
2022/10/26 02:16:16;;;;;;;;;;;;;;;9.51;100.00;95437.31;5046382;28;20031;-72
2022/10/26 02:18:43;;;;;;;;;;;;;;;9.55;100.00;95438.47;5052898;28;19924;-72
2022/10/26 02:21:11;;;;;;;;;;;;;;;9.50;100.00;95440.91;5053137;28;20037;-72
2022/10/26 02:23:40;;;;;;;;;;;;;;;9.43;100.00;95437.53;5052392;28;19978;-71
2022/10/26 02:26:08;;;;;;;;;;;;;;;9.43;100.00;95434.94;5053603;28;19936;-72
2022/10/26 02:28:41;;;;;;;;;;;;;;;9.45;100.00;95438.13;5050041;28;19932;-72
2022/10/26 02:31:08;;;;;;;;;;;;;;;9.49;100.00;95434.09;5055283;28;19944;-72
2022/10/26 02:33:37;;;;;;;;;;;;;;;9.50;100.00;95430.50;5049455;28;20310;-72
2022/10/26 02:36:06;;;;;;;;;;;;;;;9.64;100.00;95426.81;5050775;28;19971;-72
2022/10/26 02:38:34;;;;;;;;;;;;;;;9.57;100.00;95426.06;5052985;28;20593;-73
2022/10/26 02:41:01;;;;;;;;;;;;;;;9.60;100.00;95430.03;5054506;28;19971;-72
2022/10/26 02:43:29;;;;;;;;;;;;;;;9.40;100.00;95441.38;5050508;28;19928;-73
2022/10/26 02:46:01;;;;;;;;;;;;;;;9.34;100.00;95437.75;5051913;28;19929;-73
2022/10/26 02:48:28;;;;;;;;;;;;;;;9.40;100.00;95446.56;5046727;28;19940;-72
2022/10/26 02:51:01;;;;;;;;;;;;;;;9.27;100.00;95447.41;5048847;28;19931;-73
2022/10/26 02:53:45;;;;;;;;;;;;;;;9.25;100.00;95443.44;5038930;28;19929;-73
2022/10/26 02:56:17;;;;;;;;;;;;;;;9.24;100.00;95447.00;5047833;28;19929;-73
2022/10/26 02:58:46;;;;;;;;;;;;;;;9.22;100.00;95438.63;5044083;28;19924;-73
2022/10/26 03:01:13;;;;;;;;;;;;;;;9.21;100.00;95448.25;5056879;28;19968;-72
2022/10/26 03:03:40;;;;;;;;;;;;;;;9.12;100.00;95452.88;5045023;28;19925;-72
2022/10/26 03:06:08;;;;;;;;;;;;;;;9.07;100.00;95457.09;5042488;28;19933;-73
2022/10/26 03:08:35;;;;;;;;;;;;;;;9.02;100.00;95464.69;5041217;28;20014;-73
2022/10/26 03:11:01;;;;;;;;;;;;;;;9.05;100.00;95456.50;5041717;28;19925;-73
2022/10/26 03:13:28;;;;;;;;;;;;;;;9.06;100.00;95465.91;5045184;28;19932;-72
2022/10/26 03:15:56;;;;;;;;;;;;;;;9.02;100.00;95469.91;5043454;28;19975;-73
2022/10/26 03:18:23;;;;;;;;;;;;;;;9.02;100.00;95469.91;5042519;28;19928;-73
2022/10/26 03:20:49;;;;;;;;;;;;;;;8.95;100.00;95481.13;5042747;28;19929;-73
2022/10/26 03:23:16;;;;;;;;;;;;;;;8.87;100.00;95491.72;5045550;28;19935;-72
2022/10/26 03:25:42;;;;;;;;;;;;;;;8.74;100.00;95483.97;5040641;28;19921;-72
2022/10/26 03:28:09;;;;;;;;;;;;;;;8.63;100.00;95482.00;5049192;28;19929;-73
2022/10/26 03:30:36;;;;;;;;;;;;;;;8.60;100.00;95478.78;5045753;28;19932;-72
2022/10/26 03:33:02;;;;;;;;;;;;;;;8.58;100.00;95480.78;5045269;28;20408;-72
2022/10/26 03:35:29;;;;;;;;;;;;;;;8.54;100.00;95479.59;5044752;28;19932;-72
2022/10/26 03:37:56;;;;;;;;;;;;;;;8.53;100.00;95478.00;5045590;28;19964;-72
2022/10/26 03:40:23;;;;;;;;;;;;;;;8.51;100.00;95474.81;5043794;28;19985;-72
2022/10/26 03:42:49;;;;;;;;;;;;;;;8.54;100.00;95478.81;5045856;28;19932;-73
2022/10/26 03:45:16;;;;;;;;;;;;;;;8.53;100.00;95482.41;5044022;28;20025;-72
2022/10/26 03:47:47;;;;;;;;;;;;;;;8.52;100.00;95480.81;5037324;28;20094;-72
2022/10/26 03:50:16;;;;;;;;;;;;;;;8.48;100.00;95485.63;5039046;28;19929;-72
2022/10/26 03:52:43;;;;;;;;;;;;;;;8.41;100.00;95484.78;5030597;28;19928;-73
2022/10/26 03:55:10;;;;;;;;;;;;;;;8.37;100.00;95483.56;5042307;28;20026;-73
2022/10/26 03:57:43;;;;;;;;;;;;;;;8.28;100.00;95480.38;5040927;28;19961;-72
2022/10/26 04:00:14;;;;;;;;;;;;;;;8.24;100.00;95485.16;5041097;28;19943;-72
2022/10/26 04:02:41;;;;;;;;;;;;;;;8.21;100.00;95490.78;5042726;28;19982;-71
2022/10/26 04:05:08;;;;;;;;;;;;;;;8.17;100.00;95484.38;5039689;28;19941;-71
2022/10/26 04:07:35;;;;;;;;;;;;;;;8.23;100.00;95483.59;5041127;28;20061;-71
2022/10/26 04:10:02;;;;;;;;;;;;;;;8.20;100.00;95489.16;5038088;28;20018;-71
2022/10/26 04:12:29;;;;;;;;;;;;;;;8.15;100.00;95491.56;5036839;28;21387;-71
2022/10/26 04:14:57;;;;;;;;;;;;;;;8.16;100.00;95493.16;5038752;28;20590;-68
2022/10/26 04:17:24;;;;;;;;;;;;;;;8.16;100.00;95493.16;5041569;28;19968;-68
2022/10/26 04:19:50;;;;;;;;;;;;;;;8.15;100.00;95491.56;5037973;28;20018;-70
2022/10/26 04:22:17;;;;;;;;;;;;;;;8.16;100.00;95498.34;5043326;28;19935;-72
2022/10/26 04:24:44;;;;;;;;;;;;;;;8.10;100.00;95499.13;5037638;28;20750;-72
2022/10/26 04:27:10;;;;;;;;;;;;;;;8.10;100.00;95493.94;5042801;28;19925;-72
2022/10/26 04:29:37;;;;;;;;;;;;;;;8.09;100.00;95487.16;5037895;28;19928;-72
2022/10/26 04:32:06;;;;;;;;;;;;;;;8.07;100.00;95494.34;5038217;28;19935;-72
2022/10/26 04:34:32;;;;;;;;;;;;;;;8.07;100.00;95496.97;5042112;28;20011;-73
2022/10/26 04:36:59;;;;;;;;;;;;;;;8.07;100.00;95496.97;5047631;28;20102;-72
2022/10/26 04:39:26;;;;;;;;;;;;;;;8.05;100.00;95501.53;5048424;28;20040;-73
2022/10/26 04:41:54;;;;;;;;;;;;;;;7.98;100.00;95501.53;5043596;28;19940;-71
2022/10/26 04:44:21;;;;;;;;;;;;;;;7.98;100.00;95498.94;5044221;28;19956;-72
2022/10/26 04:46:47;;;;;;;;;;;;;;;8.04;100.00;95494.75;5039994;28;20382;-70
2022/10/26 04:49:14;;;;;;;;;;;;;;;8.19;100.00;95502.34;5043895;28;19969;-69
2022/10/26 04:51:41;;;;;;;;;;;;;;;8.10;100.00;95503.53;5046762;28;19992;-69
2022/10/26 04:54:10;;;;;;;;;;;;;;;8.12;100.00;95502.34;5050524;28;20765;-72
2022/10/26 04:56:36;;;;;;;;;;;;;;;8.14;100.00;95508.13;5043370;28;19968;-71
2022/10/26 04:59:03;;;;;;;;;;;;;;;7.96;100.00;95507.91;5041942;28;19936;-73
2022/10/26 05:01:30;;;;;;;;;;;;;;;7.88;100.00;95515.88;5043023;28;19932;-73
2022/10/26 05:03:58;;;;;;;;;;;;;;;7.88;100.00;95516.66;5048479;28;20047;-72
2022/10/26 05:06:25;;;;;;;;;;;;;;;7.90;100.00;95513.88;5044856;28;19925;-73
2022/10/26 05:08:52;;;;;;;;;;;;;;;7.87;100.00;95509.09;5042158;28;20171;-70
2022/10/26 05:11:21;;;;;;;;;;;;;;;8.00;100.00;95507.31;5042213;28;20376;-69
2022/10/26 05:13:48;;;;;;;;;;;;;;;8.11;100.00;95508.53;5039265;28;20691;-71
2022/10/26 05:16:17;;;;;;;;;;;;;;;8.19;100.00;95517.91;5042822;28;20007;-70
2022/10/26 05:18:46;;;;;;;;;;;;;;;8.19;100.00;95518.72;5045812;28;19952;-70
2022/10/26 05:21:18;;;;;;;;;;;;;;;8.26;100.00;95517.91;5045137;28;19933;-69
2022/10/26 05:23:54;;;;;;;;;;;;;;;8.33;100.00;95518.72;5037636;28;19925;-70
2022/10/26 05:26:22;;;;;;;;;;;;;;;8.32;100.00;95522.31;5044040;28;19960;-69
2022/10/26 05:28:50;;;;;;;;;;;;;;;8.37;100.00;95530.28;5040528;28;19927;-70
2022/10/26 05:31:16;;;;;;;;;;;;;;;8.41;100.00;95527.09;5042993;28;19932;-70
2022/10/26 05:33:43;;;;;;;;;;;;;;;8.49;100.00;95528.72;5040779;28;20416;-68
2022/10/26 05:36:10;;;;;;;;;;;;;;;8.55;100.00;95533.13;5044435;28;19952;-69
2022/10/26 05:38:36;;;;;;;;;;;;;;;8.72;100.00;95532.72;5041328;28;19971;-70
2022/10/26 05:41:03;;;;;;;;;;;;;;;8.78;100.00;95542.28;5042215;28;19925;-70
2022/10/26 05:43:30;;;;;;;;;;;;;;;8.80;100.00;95540.28;5046415;28;19939;-70
2022/10/26 05:45:56;;;;;;;;;;;;;;;8.91;100.00;95544.88;5038347;28;20883;-70
2022/10/26 05:48:23;;;;;;;;;;;;;;;8.99;100.00;95544.66;5045651;28;20390;-69
2022/10/26 05:50:49;;;;;;;;;;;;;;;9.12;100.00;95553.44;5042387;28;19925;-68
2022/10/26 05:53:16;;;;;;;;;;;;;;;9.27;100.00;95555.78;5043101;28;19936;-69
2022/10/26 05:55:43;;;;;;;;;;;;;;;9.46;100.00;95562.72;5041473;28;19952;-74
2022/10/26 05:58:10;;;;;;;;;;;;;;;9.60;100.00;95560.88;5044695;28;19937;-71
2022/10/26 06:00:43;;;;;;;;;;;;;;;9.72;100.00;95569.63;5033007;28;21531;-72
2022/10/26 06:03:22;;;;;;;;;;;;;;;9.82;100.00;95563.19;5042602;28;20032;-72
2022/10/26 06:05:53;;;;;;;;;;;;;;;10.03;100.00;95575.88;5035456;28;20016;-73
2022/10/26 06:08:21;;;;;;;;;;;;;;;10.12;100.00;95574.63;5039648;28;19939;-73
2022/10/26 06:10:48;;;;;;;;;;;;;;;10.29;100.00;95581.94;5034705;28;20540;-72
2022/10/26 06:13:15;;;;;;;;;;;;;;;10.27;100.00;95581.34;5034291;28;19935;-74
2022/10/26 06:16:14;;;;;;;;;;;;;;;10.26;100.00;95590.16;5037263;28;20023;-74
2022/10/26 06:19:00;;;;;;;;;;;;;;;10.39;100.00;95584.91;5006380;28;19937;-71
2022/10/26 06:21:39;;;;;;;;;;;;;;;10.49;100.00;95585.22;5036705;28;19929;-71
2022/10/26 06:24:15;;;;;;;;;;;;;;;10.61;100.00;95587.16;5037451;28;19937;-69
2022/10/26 06:26:51;;;;;;;;;;;;;;;10.70;100.00;95588.50;5032141;28;20027;-73
2022/10/26 06:29:32;;;;;;;;;;;;;;;10.82;100.00;95594.63;5033615;28;19998;-68
2022/10/26 06:34:45;;;;;;;;;;;;;;;10.85;100.00;95594.16;5088160;27;20432;-70
2022/10/26 06:37:12;;;;;;;;;;;;;;;11.04;100.00;95592.41;5078030;28;20021;-67
2022/10/26 06:39:43;;;;;;;;;;;;;;;11.27;100.00;95591.78;5073737;28;19932;-67
2022/10/26 06:42:10;;;;;;;;;;;;;;;11.47;100.00;95601.22;5083008;28;19924;-68
2022/10/26 06:44:37;;;;;;;;;;;;;;;11.62;100.00;95609.47;5075023;28;19934;-68
2022/10/26 06:47:06;;;;;;;;;;;;;;;11.54;100.00;95601.94;5086191;28;20019;-67
2022/10/26 06:49:42;;;;;;;;;;;;;;;11.67;100.00;95612.22;5074853;28;21399;-68
2022/10/26 06:52:19;;;;;;;;;;;;;;;11.67;100.00;95612.22;5080019;28;19928;-68
2022/10/26 06:54:50;;;;;;;;;;;;;;;11.75;100.00;95612.94;5075334;28;20012;-67
2022/10/26 06:57:21;;;;;;;;;;;;;;;11.93;100.00;95605.13;5086222;28;19928;-67
2022/10/26 06:59:50;;;;;;;;;;;;;;;12.02;100.00;95609.03;5078093;28;19932;-67
2022/10/26 07:02:17;;;;;;;;;;;;;;;12.12;100.00;95607.69;5082322;28;19932;-67
2022/10/26 07:04:44;;;;;;;;;;;;;;;12.37;100.00;95616.22;5077284;28;19931;-68
2022/10/26 07:07:13;;;;;;;;;;;;;;;12.49;100.00;95610.22;5083505;27;20027;-67
2022/10/26 07:09:39;;;;;;;;;;;;;;;12.60;100.00;95609.44;5073788;28;19931;-68
2022/10/26 07:12:06;;;;;;;;;;;;;;;12.81;100.00;95611.53;5080882;28;20393;-67
2022/10/26 07:14:33;;;;;;;;;;;;;;;12.78;100.00;95605.94;5078108;28;19931;-67
2022/10/26 07:16:59;;;;;;;;;;;;;;;12.89;100.00;95601.75;5079553;28;20058;-67
2022/10/26 07:19:26;;;;;;;;;;;;;;;12.84;100.00;95609.47;5077900;28;19955;-68
2022/10/26 07:21:55;;;;;;;;;;;;;;;12.86;100.00;95612.69;5077352;28;19985;-68
2022/10/26 07:24:22;;;;;;;;;;;;;;;12.98;100.00;95605.63;5085937;28;19923;-67
2022/10/26 07:26:49;;;;;;;;;;;;;;;13.11;100.00;95610.66;5081732;28;20030;-67
2022/10/26 07:29:17;;;;;;;;;;;;;;;13.19;100.00;95612.91;5087116;28;19929;-68
2022/10/26 07:31:43;;;;;;;;;;;;;;;13.34;100.00;95611.69;5082216;28;19932;-68
2022/10/26 07:34:10;;;;;;;;;;;;;;;13.39;100.00;95604.72;5085208;28;19932;-67
2022/10/26 07:36:38;;;;;;;;;;;;;;;13.41;100.00;95604.50;5078542;28;19938;-67
2022/10/26 07:39:05;;;;;;;;;;;;;;;13.30;100.00;95613.13;5085270;28;19931;-66
2022/10/26 07:41:32;;;;;;;;;;;;;;;13.42;100.00;95606.13;5081265;28;20017;-68
2022/10/26 07:43:59;;;;;;;;;;;;;;;13.58;100.00;95609.84;5084216;28;19932;-67
2022/10/26 07:46:25;;;;;;;;;;;;;;;13.69;100.00;95610.84;5064508;28;19928;-68
2022/10/26 07:48:52;;;;;;;;;;;;;;;13.77;100.00;95607.84;5067992;28;19932;-68
2022/10/26 07:51:19;;;;;;;;;;;;;;;13.81;100.00;95603.78;5069678;28;19932;-68
2022/10/26 07:53:46;;;;;;;;;;;;;;;14.02;100.00;95604.16;5062563;28;19928;-68
2022/10/26 07:56:12;;;;;;;;;;;;;;;14.20;100.00;95606.59;5097959;27;19936;-68
2022/10/26 07:58:39;;;;;;;;;;;;;;;14.24;100.00;95607.72;5061415;28;19928;-67
2022/10/26 08:01:10;;;;;;;;;;;;;;;14.33;100.00;95603.69;5066441;28;19933;-67
2022/10/26 08:03:37;;;;;;;;;;;;;;;14.52;100.00;95603.47;5065033;28;19929;-67
2022/10/26 08:06:04;;;;;;;;;;;;;;;14.56;100.00;95599.34;5065823;28;19936;-67
2022/10/26 08:08:31;;;;;;;;;;;;;;;14.69;100.00;95601.72;5063540;28;19981;-67
2022/10/26 08:10:58;;;;;;;;;;;;;;;14.66;100.00;95604.78;5065716;28;19924;-67
2022/10/26 08:13:24;;;;;;;;;;;;;;;14.69;100.00;95599.09;5065325;28;19976;-67
2022/10/26 08:15:58;;;;;;;;;;;;;;;14.76;100.00;95595.50;5063875;28;19928;-68
2022/10/26 08:18:25;;;;;;;;;;;;;;;14.76;100.00;95592.88;5063299;28;19986;-67
2022/10/26 08:20:51;;;;;;;;;;;;;;;14.86;100.00;95593.84;5065195;28;20333;-68
2022/10/26 08:23:18;;;;;;;;;;;;;;;15.03;100.00;95604.31;5069231;28;19928;-68
2022/10/26 08:25:45;;;;;;;;;;;;;;;15.05;100.00;95599.63;5062937;28;19986;-68
2022/10/26 08:28:12;;;;;;;;;;;;;;;15.22;100.00;95590.94;5068265;28;20025;-67
2022/10/26 08:30:38;;;;;;;;;;;;;;;15.15;100.00;95590.31;5064604;28;19962;-67
2022/10/26 08:33:06;;;;;;;;;;;;;;;15.17;100.00;95590.88;5064770;28;20392;-68
2022/10/26 08:35:33;;;;;;;;;;;;;;;15.22;100.00;95583.09;5055731;28;19986;-68
2022/10/26 08:38:00;;;;;;;;;;;;;;;15.37;100.00;95593.78;5063570;28;19928;-68
2022/10/26 08:40:30;;;;;;;;;;;;;;;15.66;100.00;95596.25;5064161;28;19935;-68
2022/10/26 08:43:00;;;;;;;;;;;;;;;15.79;100.00;95590.66;5067329;28;20043;-67
2022/10/26 08:45:28;;;;;;;;;;;;;;;15.79;100.00;95590.66;5059463;28;20031;-68
2022/10/26 08:48:04;;;;;;;;;;;;;;;15.96;100.00;95600.31;5092296;27;19929;-68
2022/10/26 08:50:33;;;;;;;;;;;;;;;16.19;100.00;95594.00;5062604;28;19925;-68
2022/10/26 08:53:13;;;;;;;;;;;;;;;16.34;100.00;95595.97;5058786;28;20028;-68
2022/10/26 08:55:45;;;;;;;;;;;;;;;16.46;100.00;95594.00;5060515;28;20723;-73
2022/10/26 08:58:17;;;;;;;;;;;;;;;16.41;100.00;95604.44;5060165;28;19931;-70
2022/10/26 09:00:46;;;;;;;;;;;;;;;16.50;100.00;95595.06;5064295;28;19928;-71
2022/10/26 09:03:14;;;;;;;;;;;;;;;16.62;100.00;95593.09;5059696;28;20007;-69
2022/10/26 09:05:56;;;;;;;;;;;;;;;16.81;100.00;95603.22;5060932;28;19968;-69
2022/10/26 09:08:26;;;;;;;;;;;;;;;16.91;100.00;95605.19;5055973;28;19928;-70
2022/10/26 09:11:11;;;;;;;;;;;;;;;16.93;100.00;95561.78;5058454;28;19925;-71
2022/10/26 09:13:53;;;;;;;;;;;;;;;17.36;100.00;95596.00;5056166;28;20487;-70
2022/10/26 09:16:24;;;;;;;;;;;;;;;17.45;100.00;95593.66;5053106;28;19973;-69
2022/10/26 09:19:00;;;;;;;;;;;;;;;17.44;100.00;95602.63;5059599;28;19928;-70
2022/10/26 09:21:37;;;;;;;;;;;;;;;17.45;100.00;95604.19;5058790;28;19967;-70
2022/10/26 09:24:03;;;;;;;;;;;;;;;17.67;100.00;95591.69;5054883;28;20015;-70
2022/10/26 09:26:30;;;;;;;;;;;;;;;17.70;100.00;95596.44;5063166;28;19940;-70
2022/10/26 09:29:00;;;;;;;;;;;;;;;17.76;100.00;95584.88;5053985;28;19932;-69
2022/10/26 09:31:29;;;;;;;;;;;;;;;17.88;100.00;95586.50;5092642;27;19947;-69
2022/10/26 09:33:57;;;;;;;;;;;;;;;18.07;100.00;95585.00;5057071;28;19927;-70
2022/10/26 09:36:23;;;;;;;;;;;;;;;18.20;100.00;95582.91;5056500;28;19929;-69
2022/10/26 09:38:55;;;;;;;;;;;;;;;18.40;86.74;95582.97;5055889;28;20023;-69
2022/10/26 09:41:25;;;;;;;;;;;;;;;18.42;82.43;95591.41;5056740;28;20046;-69
2022/10/26 09:44:17;;;;;;;;;;;;;;;18.46;78.70;95587.19;5056700;28;19936;-69
2022/10/26 09:46:52;;;;;;;;;;;;;;;18.46;81.43;95581.91;5059255;28;20464;-73
2022/10/26 09:49:20;;;;;;;;;;;;;;;18.52;78.62;95575.56;5068787;28;20007;-73
2022/10/26 09:51:47;;;;;;;;;;;;;;;18.58;77.62;95583.50;5065575;28;19936;-71
2022/10/26 09:54:17;;;;;;;;;;;;;;;18.67;78.32;95577.44;5064942;28;19990;-72
2022/10/26 09:56:46;;;;;;;;;;;;;;;18.69;77.52;95574.53;5098820;27;19924;-72
2022/10/26 09:59:14;;;;;;;;;;;;;;;18.78;76.26;95577.44;5069213;28;20548;-72
2022/10/26 10:01:41;;;;;;;;;;;;;;;18.95;73.39;95566.66;5064186;28;19927;-69
2022/10/26 10:04:08;;;;;;;;;;;;;;;19.21;73.48;95570.84;5065402;28;19928;-68
2022/10/26 10:06:34;;;;;;;;;;;;;;;19.24;72.73;95570.28;5067381;28;19935;-70
2022/10/26 10:09:11;;;;;;;;;;;;;;;19.23;72.49;95568.72;5070278;28;20433;-70
2022/10/26 10:11:53;;;;;;;;;;;;;;;19.31;71.55;95569.25;5070400;28;19928;-74
2022/10/26 10:14:25;;;;;;;;;;;;;;;19.31;69.54;95569.25;5069004;28;19928;-75
2022/10/26 10:16:56;;;;;;;;;;;;;;;19.21;68.65;95562.91;5070138;28;19931;-75
2022/10/26 10:19:24;;;;;;;;;;;;;;;19.29;68.07;95567.63;5067339;28;19951;-75
2022/10/26 10:21:54;;;;;;;;;;;;;;;19.53;67.36;95551.19;5064162;28;19948;-75
2022/10/26 10:24:22;;;;;;;;;;;;;;;19.74;67.90;95551.16;5082289;28;20371;-75
2022/10/26 10:27:08;;;;;;;;;;;;;;;19.69;68.22;95549.28;5081337;28;19924;-78
2022/10/26 10:29:40;;;;;;;;;;;;;;;19.79;66.58;95548.47;5070219;28;19933;-75
2022/10/26 10:32:13;;;;;;;;;;;;;;;19.98;64.90;95551.31;5069166;28;19928;-74
2022/10/26 10:34:40;;;;;;;;;;;;;;;20.15;63.47;95556.22;5067691;28;19943;-70
2022/10/26 10:37:20;;;;;;;;;;;;;;;20.17;62.44;95551.47;5058995;28;20070;-69
2022/10/26 10:39:47;;;;;;;;;;;;;;;20.16;59.82;95552.53;5061993;28;19929;-69
2022/10/26 10:42:16;;;;;;;;;;;;;;;20.09;58.52;95546.75;5063300;28;20018;-71
2022/10/26 10:44:45;;;;;;;;;;;;;;;20.21;60.33;95544.56;5058647;28;19932;-69
2022/10/26 10:47:20;;;;;;;;;;;;;;;20.47;59.22;95539.09;5066835;28;19968;-69
2022/10/26 10:49:59;;;;;;;;;;;;;;;20.69;57.74;95550.06;5062698;28;19966;-69
2022/10/26 10:52:28;;;;;;;;;;;;;;;20.47;54.12;95531.94;5065163;28;19928;-69
2022/10/26 10:55:02;;;;;;;;;;;;;;;20.68;53.57;95532.59;5064761;28;20019;-69
2022/10/26 10:57:35;;;;;;;;;;;;;;;20.49;54.69;95523.72;5066214;28;19951;-73
2022/10/26 11:00:08;;;;;;;;;;;;;;;20.71;53.69;95526.75;5061418;28;20019;-73
2022/10/26 11:02:38;;;;;;;;;;;;;;;20.49;54.71;95523.72;5062846;28;19968;-71
2022/10/26 11:05:10;;;;;;;;;;;;;;;20.63;54.92;95524.69;5060189;28;20746;-73
2022/10/26 11:07:45;;;;;;;;;;;;;;;20.88;52.91;95514.97;5061718;28;19928;-75
2022/10/26 11:10:14;;;;;;;;;;;;;;;20.87;52.34;95523.97;5041241;28;19928;-74
2022/10/26 11:12:48;;;;;;;;;;;;;;;21.05;50.12;95525.13;5092278;28;19928;-75
2022/10/26 11:15:17;;;;;;;;;;;;;;;21.17;47.42;95522.88;5054473;28;19939;-75
2022/10/26 11:17:43;;;;;;;;;;;;;;;21.26;47.16;95520.41;5064219;28;20011;-74
2022/10/26 11:20:13;;;;;;;;;;;;;;;21.28;47.79;95526.22;5059674;28;19957;-74
2022/10/26 11:22:57;;;;;;;;;;;;;;;21.29;45.77;95525.16;5063656;28;19928;-74
2022/10/26 11:25:27;;;;;;;;;;;;;;;21.18;48.52;95514.66;5062147;28;19929;-75
2022/10/26 11:28:11;;;;;;;;;;;;;;;21.10;47.18;95523.19;5064885;28;20015;-74
2022/10/26 11:30:42;;;;;;;;;;;;;;;21.29;47.68;95514.56;5065063;28;20545;-75
2022/10/26 11:33:14;;;;;;;;;;;;;;;21.48;47.87;95518.06;5066461;28;19938;-74
2022/10/26 11:35:55;;;;;;;;;;;;;;;21.50;46.75;95521.22;5085064;28;20004;-75
2022/10/26 11:38:22;;;;;;;;;;;;;;;21.79;45.67;95512.38;5064111;28;19928;-75
2022/10/26 11:41:17;;;;;;;;;;;;;;;21.80;44.23;95518.47;5069546;28;20430;-72
2022/10/26 11:43:46;;;;;;;;;;;;;;;21.79;44.80;95522.19;5066716;28;19924;-73
2022/10/26 11:46:13;;;;;;;;;;;;;;;21.87;42.82;95514.38;5066808;28;20033;-73
2022/10/26 11:48:56;;;;;;;;;;;;;;;21.91;43.31;95510.13;5066875;28;19927;-71
2022/10/26 11:51:43;;;;;;;;;;;;;;;22.38;42.15;95514.75;5072684;28;19978;-75
2022/10/26 11:54:14;;;;;;;;;;;;;;;22.32;43.17;95509.53;5075697;28;19982;-76
2022/10/26 11:56:47;;;;;;;;;;;;;;;22.02;43.55;95509.94;5126163;27;19962;-75
2022/10/26 11:59:18;;;;;;;;;;;;;;;22.22;42.20;95514.97;5069417;28;19928;-72
2022/10/26 12:01:57;;;;;;;;;;;;;;;22.00;41.83;95506.81;5064460;28;19925;-69
2022/10/26 12:04:27;;;;;;;;;;;;;;;22.41;41.06;95511.53;5062752;28;19936;-73
2022/10/26 12:06:55;;;;;;;;;;;;;;;22.24;39.64;95506.75;5062327;28;20535;-79
2022/10/26 12:09:25;;;;;;;;;;;;;;;22.78;39.53;95501.91;5061994;28;19955;-70
2022/10/26 12:12:14;;;;;;;;;;;;;;;23.07;38.97;95501.69;5068488;28;19977;-81
2022/10/26 12:14:44;;;;;;;;;;;;;;;23.17;39.09;95508.69;5059546;28;19989;-69
2022/10/26 12:17:40;;;;;;;;;;;;;;;23.13;40.31;95507.72;5061852;28;19964;-77
2022/10/26 12:20:25;;;;;;;;;;;;;;;23.55;39.50;95506.63;5063958;28;19974;-77
2022/10/26 12:22:52;;;;;;;;;;;;;;;23.61;38.80;95504.66;5100462;27;19920;-78
2022/10/26 12:25:20;;;;;;;;;;;;;;;24.08;35.64;95507.94;5058506;28;19924;-78
2022/10/26 12:27:46;;;;;;;;;;;;;;;24.84;34.04;95501.91;5062620;28;19932;-77
2022/10/26 12:30:16;;;;;;;;;;;;;;;26.20;31.95;95512.03;5092658;27;19928;-78
2022/10/26 12:32:43;;;;;;;;;;;;;;;26.31;31.51;95507.97;5062991;28;19930;-78
2022/10/26 12:35:28;;;;;;;;;;;;;;;26.99;31.05;95505.53;5092920;27;20769;-78
2022/10/26 12:37:55;;;;;;;;;;;;;;;27.53;28.91;95497.00;5061832;28;19955;-79
2022/10/26 12:40:39;;;;;;;;;;;;;;;28.84;26.92;95508.63;5089451;27;19931;-78
2022/10/26 12:43:12;;;;;;;;;;;;;;;29.27;26.21;95504.69;5067006;28;19924;-77
2022/10/26 12:45:42;;;;;;;;;;;;;;;29.60;25.93;95511.84;5067157;28;19936;-78
2022/10/26 12:48:21;;;;;;;;;;;;;;;-143.57;25.60;50969.03;5081106;28;19986;-79
2022/10/26 12:51:36;;;;;;;;;;;;;;;-143.57;26.75;50988.91;5063572;28;20413;-78
2022/10/26 12:54:23;;;;;;;;;;;;;;;-143.57;26.48;50957.09;5062361;28;19947;-78
2022/10/26 12:56:55;;;;;;;;;;;;;;;-143.57;26.18;50984.94;5051869;28;20032;-78
2022/10/26 12:59:34;;;;;;;;;;;;;;;-143.57;25.77;50971.03;5065525;28;19967;-78
2022/10/26 13:02:15;;;;;;;;;;;;;;;-143.57;26.18;50969.03;5098613;27;19935;-78